createdAt,value
2018-07-04T00:02:20.353Z,99873.30
2018-07-04T00:05:05.254Z,99874.33
2018-07-04T00:07:50.392Z,99873.43
2018-07-04T00:10:32.381Z,99883.05
2018-07-04T00:13:17.662Z,99871.75
2018-07-04T00:15:57.022Z,99881.37
2018-07-04T00:18:42.044Z,99877.38
2018-07-04T00:21:27.282Z,99872.43
2018-07-04T00:24:12.514Z,99875.69
2018-07-04T00:26:57.637Z,99867.91
2018-07-04T00:29:42.763Z,99862.56
2018-07-04T00:32:27.974Z,99870.59
2018-07-04T00:35:13.065Z,99869.72
2018-07-04T00:37:58.041Z,99866.77
2018-07-04T00:40:43.166Z,99863.19
2018-07-04T00:43:28.371Z,99873.81
2018-07-04T00:46:13.351Z,99867.52
2018-07-04T00:48:58.537Z,99871.39
2018-07-04T00:51:44.154Z,99872.38
2018-07-04T00:54:29.550Z,99874.95
2018-07-04T00:57:14.769Z,99868.19
2018-07-04T00:59:59.971Z,99871.37
2018-07-04T01:02:45.446Z,99879.48
2018-07-04T01:05:30.610Z,99875.91
2018-07-04T01:08:15.443Z,99881.27
2018-07-04T01:10:55.513Z,99880.14
2018-07-04T01:13:40.601Z,99873.52
2018-07-04T01:16:25.638Z,99878.47
2018-07-04T01:19:10.825Z,99883.23
2018-07-04T01:21:55.971Z,99881.13
2018-07-04T01:24:41.281Z,99885.05
2018-07-04T01:27:26.297Z,99884.45
2018-07-04T01:30:11.553Z,99882.46
2018-07-04T01:32:56.961Z,99881.89
2018-07-04T01:35:41.953Z,99880.70
2018-07-04T01:38:27.263Z,99876.81
2018-07-04T01:41:12.395Z,99875.41
2018-07-04T01:43:57.287Z,99881.44
2018-07-04T01:46:42.500Z,99872.00
2018-07-04T01:49:27.689Z,99868.57
2018-07-04T01:52:12.825Z,99863.63
2018-07-04T01:54:57.907Z,99867.52
2018-07-04T01:57:43.002Z,99864.54
2018-07-04T02:00:28.354Z,99869.03
2018-07-04T02:03:07.638Z,99870.28
2018-07-04T02:05:52.772Z,99866.32
2018-07-04T02:08:37.700Z,99874.61
2018-07-04T02:11:22.910Z,99861.48
2018-07-04T02:14:08.036Z,99862.81
2018-07-04T02:16:53.106Z,99855.94
2018-07-04T02:19:38.390Z,99853.80
2018-07-04T02:22:23.459Z,99851.39
2018-07-04T02:25:08.414Z,99848.97
2018-07-04T02:27:53.449Z,99846.95
2018-07-04T02:30:38.456Z,99845.78
2018-07-04T02:33:23.667Z,99850.38
2018-07-04T02:36:03.125Z,99849.34
2018-07-04T02:38:48.270Z,99853.05
2018-07-04T02:41:33.424Z,99848.20
2018-07-04T02:44:18.843Z,99849.41
2018-07-04T02:46:58.122Z,99840.34
2018-07-04T02:49:43.478Z,99841.77
2018-07-04T02:52:28.571Z,99841.44
2018-07-04T02:55:13.547Z,99848.31
2018-07-04T02:57:52.766Z,99847.03
2018-07-04T03:00:37.778Z,99851.73
2018-07-04T03:03:22.857Z,99849.08
2018-07-04T03:06:15.034Z,99854.50
2018-07-04T03:09:00.114Z,99857.86
2018-07-04T03:11:45.514Z,99853.27
2018-07-04T03:14:30.545Z,99863.45
2018-07-04T03:17:15.752Z,99856.31
2018-07-04T03:20:00.746Z,99858.73
2018-07-04T03:22:45.754Z,99847.78
2018-07-04T03:25:30.972Z,99849.29
2018-07-04T03:28:16.079Z,99846.97
2018-07-04T03:31:01.203Z,99846.50
2018-07-04T03:33:40.745Z,99852.09
2018-07-04T03:36:25.975Z,99848.27
2018-07-04T03:39:11.162Z,99855.69
2018-07-04T03:41:56.303Z,99853.38
2018-07-04T03:44:41.336Z,99853.00
2018-07-04T03:47:26.519Z,99854.90
2018-07-04T03:50:11.772Z,99856.55
2018-07-04T03:52:56.751Z,99859.28
2018-07-04T03:55:42.040Z,99853.56
2018-07-04T03:58:27.291Z,99856.39
2018-07-04T04:01:12.422Z,99860.02
2018-07-04T04:03:57.558Z,99859.77
2018-07-04T04:06:42.782Z,99861.52
2018-07-04T04:09:28.078Z,99865.89
2018-07-04T04:12:13.277Z,99871.13
2018-07-04T04:14:58.467Z,99865.53
2018-07-04T04:17:43.635Z,99866.23
2018-07-04T04:20:28.995Z,99864.20
2018-07-04T04:23:14.517Z,99870.81
2018-07-04T04:25:59.548Z,99874.25
2018-07-04T04:28:44.710Z,99870.16
2018-07-04T04:31:29.906Z,99871.98
2018-07-04T04:34:15.070Z,99872.25
2018-07-04T04:37:00.246Z,99881.70
2018-07-04T04:39:45.502Z,99881.28
2018-07-04T04:42:24.941Z,99884.98
2018-07-04T04:45:10.577Z,99882.87
2018-07-04T04:47:56.363Z,99885.05
2018-07-04T04:50:41.356Z,99884.92
2018-07-04T04:53:26.372Z,99885.45
2018-07-04T04:56:11.439Z,99890.55
2018-07-04T04:58:56.543Z,99896.66
2018-07-04T05:01:41.726Z,99899.56
2018-07-04T05:04:26.716Z,99902.23
2018-07-04T05:07:11.886Z,99902.84
2018-07-04T05:09:56.976Z,99902.84
2018-07-04T05:12:42.421Z,99899.38
2018-07-04T05:15:27.265Z,99908.19
2018-07-04T05:18:12.396Z,99902.63
2018-07-04T05:20:57.766Z,99899.97
2018-07-04T05:23:43.183Z,99895.09
2018-07-04T05:26:28.362Z,99896.67
2018-07-04T05:29:13.520Z,99900.17
2018-07-04T05:31:58.578Z,99901.70
2018-07-04T05:34:45.462Z,99900.39
2018-07-04T05:37:30.724Z,99900.91
2018-07-04T05:40:15.947Z,99898.09
2018-07-04T05:43:01.059Z,99902.91
2018-07-04T05:45:46.905Z,99906.14
2018-07-04T05:48:31.958Z,99911.14
2018-07-04T05:51:17.175Z,99909.95
2018-07-04T05:54:02.214Z,99914.77
2018-07-04T05:56:47.229Z,99918.76
2018-07-04T05:59:32.202Z,99919.04
2018-07-04T06:02:17.194Z,99917.70
2018-07-04T06:05:02.121Z,99912.66
2018-07-04T06:07:47.105Z,99922.73
2018-07-04T06:10:32.295Z,99923.47
2018-07-04T06:13:17.389Z,99920.40
2018-07-04T06:16:02.746Z,99922.84
2018-07-04T06:18:47.906Z,99919.52
2018-07-04T06:21:32.875Z,99922.30
2018-07-04T06:24:17.970Z,99925.92
2018-07-04T06:27:03.106Z,99925.37
2018-07-04T06:29:48.322Z,99931.80
2018-07-04T06:32:33.226Z,99923.19
2018-07-04T06:35:18.335Z,99923.61
2018-07-04T06:37:44.646Z,99924.31
2018-07-04T06:40:10.995Z,99922.03
2018-07-04T06:42:37.755Z,99930.98
2018-07-04T06:45:04.164Z,99933.66
2018-07-04T06:47:30.656Z,99924.39
2018-07-04T06:49:57.030Z,99920.94
2018-07-04T06:52:23.358Z,99921.92
2018-07-04T06:54:50.204Z,99916.08
2018-07-04T06:57:17.466Z,99916.53
2018-07-04T06:59:43.774Z,99918.22
2018-07-04T07:02:12.279Z,99919.55
2018-07-04T07:05:01.951Z,99920.77
2018-07-04T07:07:47.625Z,99921.38
2018-07-04T07:10:39.305Z,99920.05
2018-07-04T07:13:24.728Z,99912.53
2018-07-04T07:16:03.932Z,99908.59
2018-07-04T07:21:21.979Z,99915.03
2018-07-04T07:24:06.927Z,99913.42
2018-07-04T07:26:52.150Z,99905.77
2018-07-04T07:29:37.346Z,99906.89
2018-07-04T07:32:22.434Z,99907.52
2018-07-04T07:35:07.611Z,99913.30
2018-07-04T07:37:52.668Z,99916.27
2018-07-04T07:40:37.831Z,99920.19
2018-07-04T07:43:22.883Z,99927.08
2018-07-04T07:46:07.855Z,99922.41
2018-07-04T07:48:52.879Z,99926.47
2018-07-04T07:51:39.123Z,99928.23
2018-07-04T07:54:24.263Z,99920.55
2018-07-04T07:57:09.138Z,99915.59
2018-07-04T07:59:54.098Z,99915.88
2018-07-04T08:02:41.042Z,99919.63
2018-07-04T08:05:26.412Z,99926.19
2018-07-04T08:08:11.488Z,99925.78
2018-07-04T08:10:56.399Z,99927.78
2018-07-04T08:13:41.715Z,99928.97
2018-07-04T08:16:26.962Z,99937.95
2018-07-04T08:19:12.138Z,99932.06
2018-07-04T08:21:57.483Z,99937.73
2018-07-04T08:24:42.591Z,99936.61
2018-07-04T08:27:27.492Z,99931.63
2018-07-04T08:30:13.195Z,99939.23
2018-07-04T08:32:58.210Z,99949.28
2018-07-04T08:35:37.288Z,99947.20
2018-07-04T08:38:22.333Z,99955.16
2018-07-04T08:41:08.580Z,99951.53
2018-07-04T08:43:53.586Z,99952.78
2018-07-04T08:46:38.680Z,99951.16
2018-07-04T08:49:23.827Z,99953.72
2018-07-04T08:52:08.903Z,99955.02
2018-07-04T08:54:54.719Z,99952.02
2018-07-04T08:57:39.695Z,99946.66
2018-07-04T09:00:25.835Z,99942.64
2018-07-04T09:03:10.791Z,99944.69
2018-07-04T09:05:56.563Z,99942.48
2018-07-04T09:08:41.423Z,99938.55
2018-07-04T09:11:26.693Z,99945.34
2018-07-04T09:14:11.813Z,99944.25
2018-07-04T09:16:56.836Z,99945.13
2018-07-04T09:19:41.946Z,99941.14
2018-07-04T09:22:27.162Z,99942.14
2018-07-04T09:25:12.443Z,99943.42
2018-07-04T09:27:57.536Z,99940.63
2018-07-04T09:30:42.582Z,99941.69
2018-07-04T09:33:27.774Z,99935.53
2018-07-04T09:36:13.014Z,99937.13
2018-07-04T09:38:58.107Z,99927.98
2018-07-04T09:41:43.242Z,99932.25
2018-07-04T09:44:28.535Z,99936.46
2018-07-04T09:47:13.841Z,99930.91
2018-07-04T09:49:58.910Z,99937.37
2018-07-04T09:52:44.883Z,99943.73
2018-07-04T09:55:30.078Z,99936.30
2018-07-04T09:58:16.222Z,99941.13
2018-07-04T10:01:07.225Z,99942.76
2018-07-04T10:03:52.034Z,99943.28
2018-07-04T10:06:40.007Z,99942.70
2018-07-04T10:09:25.818Z,99940.83
2018-07-04T10:12:10.963Z,99939.83
2018-07-04T10:14:56.058Z,99935.24
2018-07-04T10:17:41.196Z,99930.19
2018-07-04T10:20:26.413Z,99923.75
2018-07-04T10:23:11.547Z,99921.48
2018-07-04T10:25:56.669Z,99918.44
2018-07-04T10:28:41.846Z,99920.00
2018-07-04T10:31:26.894Z,99928.58
2018-07-04T10:34:12.094Z,99936.16
2018-07-04T10:36:58.395Z,99935.25
2018-07-04T10:39:37.728Z,99922.63
2018-07-04T10:42:22.915Z,99905.38
2018-07-04T10:45:08.036Z,99899.19
2018-07-04T10:47:53.174Z,99887.21
2018-07-04T10:50:38.703Z,99891.27
2018-07-04T10:53:23.931Z,99881.95
2018-07-04T10:56:09.098Z,99873.75
2018-07-04T10:58:54.101Z,99865.67
2018-07-04T11:01:39.126Z,99864.03
2018-07-04T11:04:24.343Z,99866.55
2018-07-04T11:07:03.638Z,99863.14
2018-07-04T11:09:48.869Z,99854.19
2018-07-04T11:12:33.982Z,99842.24
2018-07-04T11:15:19.044Z,99837.75
2018-07-04T11:18:04.438Z,99834.72
2018-07-04T11:20:49.622Z,99827.66
2018-07-04T11:23:34.690Z,99824.70
2018-07-04T11:26:19.956Z,99826.00
2018-07-04T11:29:05.099Z,99825.69
2018-07-04T11:31:50.113Z,99824.02
2018-07-04T11:34:35.407Z,99819.95
2018-07-04T11:37:20.481Z,99823.94
2018-07-04T11:40:05.803Z,99840.70
2018-07-04T11:42:50.831Z,99855.97
2018-07-04T11:45:35.998Z,99857.13
2018-07-04T11:48:02.311Z,99857.81
2018-07-04T11:50:28.611Z,99861.67
2018-07-04T11:52:54.903Z,99858.48
2018-07-04T11:55:21.208Z,99850.19
2018-07-04T11:57:47.501Z,99853.44
2018-07-04T12:00:13.882Z,99845.66
2018-07-04T12:02:40.179Z,99834.25
2018-07-04T12:05:25.442Z,99834.19
2018-07-04T12:07:51.727Z,99819.09
2018-07-04T12:10:33.943Z,99825.70
2018-07-04T12:13:00.596Z,99825.64
2018-07-04T12:15:26.962Z,99821.53
2018-07-04T12:17:53.243Z,99832.34
2018-07-04T12:20:20.154Z,99829.77
2018-07-04T12:22:46.447Z,99834.19
2018-07-04T12:25:13.289Z,99836.28
2018-07-04T12:27:39.713Z,99839.34
2018-07-04T12:30:07.055Z,99835.48
2018-07-04T12:32:33.399Z,99840.22
2018-07-04T12:34:59.694Z,99840.52
2018-07-04T12:37:27.066Z,99840.06
2018-07-04T12:39:53.358Z,99838.20
2018-07-04T12:42:20.165Z,99830.20
2018-07-04T12:44:46.449Z,99820.95
2018-07-04T12:47:12.753Z,99811.51
2018-07-04T12:49:39.011Z,99813.55
2018-07-04T12:52:05.333Z,99811.77
2018-07-04T12:54:37.481Z,99812.14
2018-07-04T12:57:22.715Z,99810.17
2018-07-04T13:00:08.536Z,99797.25
2018-07-04T13:02:48.153Z,99790.72
2018-07-04T13:05:33.256Z,99786.56
2018-07-04T13:08:18.517Z,99783.34
2018-07-04T13:11:03.677Z,99777.73
2018-07-04T13:13:48.722Z,99772.78
2018-07-04T13:16:34.030Z,99777.42
2018-07-04T13:19:19.340Z,99776.70
2018-07-04T13:22:04.419Z,99767.70
2018-07-04T13:24:49.702Z,99756.47
2018-07-04T13:27:34.874Z,99752.02
2018-07-04T13:30:20.146Z,99747.77
2018-07-04T13:33:05.379Z,99745.11
2018-07-04T13:35:50.558Z,99752.89
2018-07-04T13:38:35.591Z,99745.23
2018-07-04T13:41:21.475Z,99742.34
2018-07-04T13:44:06.504Z,99745.73
2018-07-04T13:46:51.655Z,99746.01
2018-07-04T13:49:37.018Z,99754.28
2018-07-04T13:52:22.077Z,99756.70
2018-07-04T13:55:01.388Z,99753.19
2018-07-04T13:57:46.520Z,99753.48
2018-07-04T14:00:31.615Z,99754.75
2018-07-04T14:03:16.961Z,99751.14
2018-07-04T14:06:02.037Z,99751.39
2018-07-04T14:08:41.455Z,99756.34
2018-07-04T14:11:27.129Z,99755.95
2018-07-04T14:14:12.386Z,99757.47
2018-07-04T14:16:52.422Z,99755.55
2018-07-04T14:19:37.682Z,99760.73
2018-07-04T14:22:22.691Z,99756.44
2018-07-04T14:25:02.057Z,99755.91
2018-07-04T14:27:47.067Z,99749.87
2018-07-04T14:30:32.363Z,99758.28
2018-07-04T14:33:17.742Z,99760.67
2018-07-04T14:36:02.783Z,99752.09
2018-07-04T14:38:48.089Z,99744.22
2018-07-04T14:41:33.931Z,99741.39
2018-07-04T14:44:19.090Z,99733.99
2018-07-04T14:47:04.291Z,99728.63
2018-07-04T14:49:43.714Z,99719.60
2018-07-04T14:52:28.964Z,99721.87
2018-07-04T14:55:08.146Z,99722.95
2018-07-04T14:57:53.339Z,99733.59
2018-07-04T15:00:38.572Z,99737.09
2018-07-04T15:03:23.630Z,99731.34
2018-07-04T15:06:08.871Z,99718.77
2018-07-04T15:08:54.007Z,99717.66
2018-07-04T15:11:39.101Z,99709.80
2018-07-04T15:14:24.109Z,99708.54
2018-07-04T15:17:09.382Z,99703.15
2018-07-04T15:19:54.713Z,99696.52
2018-07-04T15:22:39.854Z,99694.82
2018-07-04T15:25:25.106Z,99693.33
2018-07-04T15:28:10.432Z,99690.96
2018-07-04T15:30:55.653Z,99683.66
2018-07-04T15:33:41.080Z,99690.42
2018-07-04T15:36:26.251Z,99688.39
2018-07-04T15:39:11.469Z,99685.21
2018-07-04T15:41:56.930Z,99683.98
2018-07-04T15:44:42.053Z,99681.70
2018-07-04T15:47:21.374Z,99679.55
2018-07-04T15:50:06.483Z,99670.50
2018-07-04T15:52:51.566Z,99665.45
2018-07-04T15:55:36.687Z,99658.98
2018-07-04T15:58:21.800Z,99664.01
2018-07-04T16:01:06.791Z,99661.58
2018-07-04T16:03:52.018Z,99663.48
2018-07-04T16:06:37.162Z,99667.95
2018-07-04T16:09:22.482Z,99667.43
2018-07-04T16:12:07.756Z,99670.26
2018-07-04T16:14:52.897Z,99657.25
2018-07-04T16:17:37.871Z,99651.09
2018-07-04T16:20:23.172Z,99640.91
2018-07-04T16:23:08.283Z,99633.92
2018-07-04T16:25:53.354Z,99639.56
2018-07-04T16:28:38.435Z,99629.32
2018-07-04T16:31:23.940Z,99625.72
2018-07-04T16:34:09.000Z,99621.13
2018-07-04T16:36:54.131Z,99612.13
2018-07-04T16:39:39.370Z,99608.87
2018-07-04T16:42:18.633Z,99605.98
2018-07-04T16:45:03.902Z,99611.63
2018-07-04T16:47:48.929Z,99611.02
2018-07-04T16:50:34.329Z,99610.20
2018-07-04T16:53:19.450Z,99607.98
2018-07-04T16:56:04.667Z,99616.23
2018-07-04T16:58:49.585Z,99614.56
2018-07-04T17:01:34.765Z,99615.01
2018-07-04T17:04:19.892Z,99627.63
2018-07-04T17:07:05.038Z,99626.77
2018-07-04T17:09:50.294Z,99631.50
2018-07-04T17:12:35.514Z,99628.63
2018-07-04T17:15:20.626Z,99626.38
2018-07-04T17:18:05.583Z,99624.97
2018-07-04T17:20:50.706Z,99631.22
2018-07-04T17:23:35.943Z,99634.80
2018-07-04T17:26:20.926Z,99637.11
2018-07-04T17:29:05.968Z,99645.14
2018-07-04T17:31:51.020Z,99651.95
2018-07-04T17:34:35.918Z,99655.30
2018-07-04T17:37:21.128Z,99656.41
2018-07-04T17:40:06.263Z,99644.72
2018-07-04T17:42:51.404Z,99636.48
2018-07-04T17:45:30.817Z,99635.23
2018-07-04T17:48:15.862Z,99630.46
2018-07-04T17:51:00.775Z,99628.31
2018-07-04T17:53:46.715Z,99630.70
2018-07-04T17:56:31.913Z,99635.62
2018-07-04T17:59:17.274Z,99634.33
2018-07-04T18:02:02.495Z,99636.22
2018-07-04T18:04:47.521Z,99640.20
2018-07-04T18:07:32.592Z,99648.75
2018-07-04T18:10:11.998Z,99649.38
2018-07-04T18:12:57.092Z,99655.43
2018-07-04T18:15:42.120Z,99655.51
2018-07-04T18:18:27.067Z,99658.75
2018-07-04T18:21:12.283Z,99656.85
2018-07-04T18:23:57.527Z,99660.95
2018-07-04T18:26:42.528Z,99657.89
2018-07-04T18:29:27.749Z,99669.61
2018-07-04T18:32:12.962Z,99669.05
2018-07-04T18:34:57.794Z,99668.06
2018-07-04T18:37:49.933Z,99664.09
2018-07-04T18:40:35.042Z,99661.23
2018-07-04T18:43:20.139Z,99660.98
2018-07-04T18:46:05.145Z,99660.81
2018-07-04T18:48:50.238Z,99668.80
2018-07-04T18:51:35.366Z,99674.88
2018-07-04T18:54:20.488Z,99673.89
2018-07-04T18:57:05.559Z,99678.31
2018-07-04T18:59:51.357Z,99699.36
2018-07-04T19:02:36.518Z,99710.70
2018-07-04T19:05:21.880Z,99719.78
2018-07-04T19:08:07.023Z,99718.51
2018-07-04T19:10:51.986Z,99714.70
2018-07-04T19:13:37.195Z,99717.04
2018-07-04T19:16:25.421Z,99709.67
2018-07-04T19:19:10.408Z,99711.92
2018-07-04T19:21:55.560Z,99714.14
2018-07-04T19:24:40.750Z,99712.31
2018-07-04T19:27:25.758Z,99717.70
2018-07-04T19:30:11.070Z,99714.53
2018-07-04T19:32:56.231Z,99716.43
2018-07-04T19:35:41.406Z,99706.82
2018-07-04T19:38:26.639Z,99691.82
2018-07-04T19:41:11.850Z,99683.83
2018-07-04T19:43:51.229Z,99687.33
2018-07-04T19:46:36.342Z,99702.05
2018-07-04T19:49:21.372Z,99709.01
2018-07-04T19:52:06.645Z,99712.52
2018-07-04T19:54:51.723Z,99717.89
2018-07-04T19:57:36.650Z,99716.00
2018-07-04T20:00:21.583Z,99709.58
2018-07-04T20:03:06.935Z,99710.38
2018-07-04T20:05:52.260Z,99707.16
2018-07-04T20:08:37.189Z,99698.03
2018-07-04T20:11:22.166Z,99697.23
2018-07-04T20:14:07.372Z,99700.45
2018-07-04T20:16:52.729Z,99702.05
2018-07-04T20:19:37.879Z,99707.14
2018-07-04T20:22:22.833Z,99716.52
2018-07-04T20:25:07.870Z,99717.85
2018-07-04T20:27:52.975Z,99708.73
2018-07-04T20:30:37.920Z,99702.84
2018-07-04T20:33:23.006Z,99702.31
2018-07-04T20:36:08.199Z,99692.14
2018-07-04T20:38:53.239Z,99687.06
2018-07-04T20:41:32.497Z,99676.89
2018-07-04T20:44:17.639Z,99673.39
2018-07-04T20:47:02.748Z,99661.06
2018-07-04T20:49:47.643Z,99662.95
2018-07-04T20:52:32.610Z,99670.70
2018-07-04T20:55:17.729Z,99669.86
2018-07-04T20:58:03.026Z,99660.73
2018-07-04T21:00:48.197Z,99658.34
2018-07-04T21:03:33.552Z,99657.52
2018-07-04T21:06:18.668Z,99652.42
2018-07-04T21:09:04.063Z,99665.53
2018-07-04T21:11:49.277Z,99674.63
2018-07-04T21:14:34.412Z,99683.17
2018-07-04T21:17:19.434Z,99686.35
2018-07-04T21:20:04.638Z,99690.08
2018-07-04T21:22:49.797Z,99696.17
2018-07-04T21:25:35.145Z,99690.27
2018-07-04T21:28:20.191Z,99676.06
2018-07-04T21:31:05.385Z,99666.37
2018-07-04T21:33:50.414Z,99662.57
2018-07-04T21:36:35.378Z,99668.64
2018-07-04T21:39:20.490Z,99672.07
2018-07-04T21:42:05.635Z,99675.51
2018-07-04T21:44:50.684Z,99666.95
2018-07-04T21:47:35.965Z,99664.42
2018-07-04T21:50:21.245Z,99665.75
2018-07-04T21:53:06.269Z,99659.30
2018-07-04T21:55:51.578Z,99655.48
2018-07-04T21:58:37.062Z,99649.86
2018-07-04T22:01:22.298Z,99650.34
2018-07-04T22:04:07.675Z,99650.73
2018-07-04T22:06:52.490Z,99654.98
2018-07-04T22:09:37.598Z,99660.28
2018-07-04T22:12:22.694Z,99656.25
2018-07-04T22:15:08.015Z,99656.25
2018-07-04T22:17:53.055Z,99651.94
2018-07-04T22:20:38.126Z,99650.61
2018-07-04T22:23:23.343Z,99650.01
2018-07-04T22:26:08.630Z,99641.20
2018-07-04T22:28:53.816Z,99637.92
2018-07-04T22:31:39.167Z,99637.06
2018-07-04T22:34:24.199Z,99636.20
2018-07-04T22:37:09.417Z,99637.02
2018-07-04T22:39:54.402Z,99642.61
2018-07-04T22:42:39.597Z,99646.52
2018-07-04T22:45:24.837Z,99652.37
2018-07-04T22:48:09.978Z,99649.64
2018-07-04T22:50:55.047Z,99657.81
2018-07-04T22:53:40.213Z,99665.81
2018-07-04T22:56:25.347Z,99675.13
2018-07-04T22:59:10.394Z,99672.41
2018-07-04T23:01:55.532Z,99681.98
2018-07-04T23:04:40.646Z,99679.79
2018-07-04T23:07:25.493Z,99685.33
2018-07-04T23:10:10.593Z,99687.14
2018-07-04T23:12:55.669Z,99693.53
2018-07-04T23:15:40.902Z,99694.28
2018-07-04T23:18:25.929Z,99692.93
2018-07-04T23:21:10.887Z,99688.56
2018-07-04T23:23:56.086Z,99689.06
2018-07-04T23:26:41.415Z,99693.06
2018-07-04T23:29:26.670Z,99697.56
2018-07-04T23:32:11.878Z,99698.52
2018-07-04T23:34:57.064Z,99696.66
2018-07-04T23:37:42.230Z,99685.38
2018-07-04T23:40:27.326Z,99689.11
2018-07-04T23:43:12.703Z,99680.32
2018-07-04T23:45:58.058Z,99682.85
2018-07-04T23:48:43.443Z,99684.71
2018-07-04T23:51:28.526Z,99692.88
2018-07-04T23:54:07.872Z,99686.41
2018-07-04T23:56:53.054Z,99699.86
2018-07-04T23:59:38.083Z,99692.87
